createdAt,value
2018-06-05T00:00:47.863Z,0.00
2018-06-05T00:01:47.811Z,0.00
2018-06-05T00:02:47.756Z,0.00
2018-06-05T00:03:47.704Z,0.00
2018-06-05T00:04:47.652Z,0.00
2018-06-05T00:05:47.599Z,0.00
2018-06-05T00:06:47.547Z,0.00
2018-06-05T00:07:47.495Z,0.00
2018-06-05T00:08:47.440Z,0.00
2018-06-05T00:09:47.388Z,0.00
2018-06-05T00:10:47.336Z,0.00
2018-06-05T00:11:47.283Z,0.00
2018-06-05T00:12:47.230Z,0.00
2018-06-05T00:13:47.179Z,0.00
2018-06-05T00:14:47.126Z,0.00
2018-06-05T00:15:47.072Z,0.00
2018-06-05T00:16:47.019Z,0.00
2018-06-05T00:17:46.965Z,0.00
2018-06-05T00:18:46.913Z,0.00
2018-06-05T00:19:46.860Z,0.00
2018-06-05T00:20:46.806Z,0.00
2018-06-05T00:21:46.753Z,0.00
2018-06-05T00:22:46.701Z,0.00
2018-06-05T00:23:46.650Z,0.00
2018-06-05T00:24:46.598Z,0.00
2018-06-05T00:25:46.541Z,0.00
2018-06-05T00:26:46.489Z,0.00
2018-06-05T00:27:46.436Z,0.00
2018-06-05T00:28:46.383Z,0.00
2018-06-05T00:29:46.330Z,0.00
2018-06-05T00:30:46.279Z,0.00
2018-06-05T00:31:46.229Z,0.00
2018-06-05T00:32:46.171Z,0.00
2018-06-05T00:33:46.119Z,0.00
2018-06-05T00:34:46.068Z,0.00
2018-06-05T00:35:46.012Z,0.00
2018-06-05T00:36:45.961Z,0.00
2018-06-05T00:37:45.907Z,0.00
2018-06-05T00:38:45.857Z,0.00
2018-06-05T00:39:45.803Z,0.00
2018-06-05T00:40:45.747Z,0.00
2018-06-05T00:41:45.696Z,0.00
2018-06-05T00:42:45.646Z,0.00
2018-06-05T00:43:45.590Z,0.00
2018-06-05T00:44:45.536Z,0.00
2018-06-05T00:45:45.483Z,0.00
2018-06-05T00:46:45.430Z,0.00
2018-06-05T00:47:45.378Z,0.00
2018-06-05T00:48:45.324Z,0.00
2018-06-05T00:49:45.277Z,0.00
2018-06-05T00:50:45.223Z,0.00
2018-06-05T00:51:45.165Z,0.00
2018-06-05T00:52:45.113Z,0.00
2018-06-05T00:53:45.061Z,0.00
2018-06-05T00:54:45.009Z,0.00
2018-06-05T00:55:44.952Z,0.00
2018-06-05T00:56:44.901Z,0.00
2018-06-05T00:57:44.851Z,0.00
2018-06-05T00:58:44.793Z,0.00
2018-06-05T00:59:44.740Z,0.00
2018-06-05T01:00:44.691Z,0.00
2018-06-05T01:01:44.636Z,0.00
2018-06-05T01:02:44.583Z,0.00
2018-06-05T01:03:44.528Z,0.00
2018-06-05T01:04:44.475Z,0.00
2018-06-05T01:05:44.426Z,0.00
2018-06-05T01:06:44.371Z,0.00
2018-06-05T01:07:44.317Z,0.00
2018-06-05T01:08:44.264Z,0.00
2018-06-05T01:09:44.210Z,0.00
2018-06-05T01:10:44.156Z,0.00
2018-06-05T01:11:44.102Z,0.00
2018-06-05T01:12:44.051Z,0.00
2018-06-05T01:13:43.995Z,0.00
2018-06-05T01:14:43.942Z,0.00
2018-06-05T01:15:43.891Z,0.00
2018-06-05T01:16:43.837Z,0.00
2018-06-05T01:17:43.783Z,0.00
2018-06-05T01:18:43.729Z,0.00
2018-06-05T01:19:43.674Z,0.00
2018-06-05T01:20:43.623Z,0.00
2018-06-05T01:21:43.570Z,0.00
2018-06-05T01:22:43.515Z,0.00
2018-06-05T01:23:43.465Z,0.00
2018-06-05T01:24:43.412Z,0.00
2018-06-05T01:25:43.355Z,0.00
2018-06-05T01:26:43.301Z,0.00
2018-06-05T01:27:43.248Z,0.00
2018-06-05T01:28:43.195Z,0.00
2018-06-05T01:29:43.143Z,0.00
2018-06-05T01:30:43.089Z,0.00
2018-06-05T01:31:43.035Z,0.00
2018-06-05T01:32:42.981Z,0.00
2018-06-05T01:33:42.928Z,0.00
2018-06-05T01:34:42.875Z,0.00
2018-06-05T01:35:42.823Z,0.00
2018-06-05T01:36:42.769Z,0.00
2018-06-05T01:37:42.718Z,0.00
2018-06-05T01:38:42.662Z,0.00
2018-06-05T01:39:42.608Z,0.00
2018-06-05T01:40:42.559Z,0.00
2018-06-05T01:41:42.511Z,0.00
2018-06-05T01:42:42.448Z,0.00
2018-06-05T01:43:42.397Z,0.00
2018-06-05T01:44:42.343Z,0.00
2018-06-05T01:45:42.290Z,0.00
2018-06-05T01:46:42.237Z,0.00
2018-06-05T01:47:42.187Z,0.00
2018-06-05T01:48:42.130Z,0.00
2018-06-05T01:49:42.077Z,0.00
2018-06-05T01:50:42.026Z,0.00
2018-06-05T01:51:41.972Z,0.00
2018-06-05T01:52:41.918Z,0.00
2018-06-05T01:53:41.870Z,0.00
2018-06-05T01:54:41.811Z,0.00
2018-06-05T01:55:41.758Z,0.00
2018-06-05T01:56:41.710Z,0.00
2018-06-05T01:57:41.653Z,0.00
2018-06-05T01:58:41.598Z,0.00
2018-06-05T01:59:41.549Z,0.00
2018-06-05T02:00:41.493Z,0.00
2018-06-05T02:01:41.440Z,0.00
2018-06-05T02:02:41.388Z,0.00
2018-06-05T02:03:41.334Z,0.00
2018-06-05T02:04:41.281Z,0.00
2018-06-05T02:05:41.229Z,0.00
2018-06-05T02:06:41.177Z,0.00
2018-06-05T02:07:41.225Z,0.00
2018-06-05T02:08:41.068Z,0.00
2018-06-05T02:09:41.020Z,0.00
2018-06-05T02:10:40.961Z,0.00
2018-06-05T02:11:40.910Z,0.00
2018-06-05T02:12:40.859Z,0.00
2018-06-05T02:13:40.804Z,0.00
2018-06-05T02:14:40.754Z,0.00
2018-06-05T02:15:40.698Z,0.00
2018-06-05T02:16:40.646Z,0.00
2018-06-05T02:17:40.592Z,0.00
2018-06-05T02:18:40.537Z,0.00
2018-06-05T02:19:40.484Z,0.00
2018-06-05T02:20:40.432Z,0.00
2018-06-05T02:21:40.379Z,0.00
2018-06-05T02:22:40.326Z,0.00
2018-06-05T02:23:40.274Z,0.00
2018-06-05T02:24:40.221Z,0.00
2018-06-05T02:25:40.165Z,0.00
2018-06-05T02:26:40.117Z,0.00
2018-06-05T02:27:40.060Z,0.00
2018-06-05T02:28:40.006Z,0.00
2018-06-05T02:29:39.953Z,0.00
2018-06-05T02:30:39.901Z,0.00
2018-06-05T02:31:39.849Z,0.00
2018-06-05T02:32:39.793Z,0.00
2018-06-05T02:33:39.742Z,0.00
2018-06-05T02:34:39.691Z,0.00
2018-06-05T02:35:39.635Z,0.00
2018-06-05T02:36:39.589Z,0.00
2018-06-05T02:37:39.531Z,0.00
2018-06-05T02:38:39.473Z,0.00
2018-06-05T02:39:39.421Z,0.00
2018-06-05T02:40:39.366Z,0.00
2018-06-05T02:41:39.316Z,0.00
2018-06-05T02:42:39.258Z,0.00
2018-06-05T02:43:39.205Z,0.00
2018-06-05T02:44:39.151Z,0.00
2018-06-05T02:45:39.097Z,0.00
2018-06-05T02:46:39.047Z,4.00
2018-06-05T02:47:38.998Z,4.00
2018-06-05T02:48:38.939Z,0.00
2018-06-05T02:49:38.883Z,4.00
2018-06-05T02:50:38.830Z,4.00
2018-06-05T02:51:38.775Z,4.00
2018-06-05T02:52:38.730Z,4.00
2018-06-05T02:53:38.670Z,4.00
2018-06-05T02:54:38.614Z,4.00
2018-06-05T02:55:38.560Z,8.00
2018-06-05T02:56:38.508Z,8.00
2018-06-05T02:57:38.453Z,8.00
2018-06-05T02:58:38.401Z,8.00
2018-06-05T02:59:38.347Z,12.00
2018-06-05T03:00:38.301Z,12.00
2018-06-05T03:01:38.321Z,12.00
2018-06-05T03:02:38.187Z,12.00
2018-06-05T03:03:38.132Z,16.00
2018-06-05T03:04:38.079Z,20.00
2018-06-05T03:05:38.025Z,20.00
2018-06-05T03:06:37.973Z,28.00
2018-06-05T03:07:37.916Z,28.00
2018-06-05T03:08:37.863Z,32.00
2018-06-05T03:09:37.810Z,36.00
2018-06-05T03:10:37.756Z,40.00
2018-06-05T03:11:37.705Z,40.00
2018-06-05T03:12:37.650Z,48.00
2018-06-05T03:13:37.596Z,52.00
2018-06-05T03:14:37.542Z,56.00
2018-06-05T03:15:37.488Z,64.00
2018-06-05T03:16:37.436Z,72.00
2018-06-05T03:17:37.382Z,76.00
2018-06-05T03:18:37.346Z,84.00
2018-06-05T03:19:37.273Z,88.00
2018-06-05T03:20:37.326Z,92.00
2018-06-05T03:21:37.166Z,100.00
2018-06-05T03:22:37.110Z,108.00
2018-06-05T03:23:37.059Z,116.00
2018-06-05T03:24:37.005Z,120.00
2018-06-05T03:25:36.951Z,132.00
2018-06-05T03:26:36.895Z,140.00
2018-06-05T03:27:36.843Z,156.00
2018-06-05T03:28:36.788Z,168.00
2018-06-05T03:29:36.735Z,180.00
2018-06-05T03:30:36.682Z,196.00
2018-06-05T03:31:36.626Z,212.00
2018-06-05T03:32:36.574Z,228.00
2018-06-05T03:33:36.523Z,244.00
2018-06-05T03:34:36.469Z,260.00
2018-06-05T03:35:36.412Z,276.00
2018-06-05T03:36:36.358Z,296.00
2018-06-05T03:37:36.305Z,316.00
2018-06-05T03:38:36.248Z,332.00
2018-06-05T03:39:36.196Z,352.00
2018-06-05T03:40:36.143Z,380.00
2018-06-05T03:41:36.090Z,404.00
2018-06-05T03:42:36.034Z,428.00
2018-06-05T03:43:35.985Z,452.00
2018-06-05T03:44:35.928Z,480.00
2018-06-05T03:45:35.874Z,508.00
2018-06-05T03:46:35.818Z,540.00
2018-06-05T03:47:35.767Z,588.00
2018-06-05T03:48:35.714Z,640.00
2018-06-05T03:49:35.660Z,684.00
2018-06-05T03:50:35.604Z,720.00
2018-06-05T03:51:35.551Z,740.00
2018-06-05T03:52:35.498Z,764.00
2018-06-05T03:53:35.446Z,776.00
2018-06-05T03:54:35.391Z,800.00
2018-06-05T03:55:35.339Z,824.00
2018-06-05T03:56:35.286Z,832.00
2018-06-05T03:57:35.232Z,840.00
2018-06-05T03:58:35.178Z,848.00
2018-06-05T03:59:35.124Z,856.00
2018-06-05T04:00:35.072Z,876.00
2018-06-05T04:01:35.018Z,900.00
2018-06-05T04:02:34.964Z,924.00
2018-06-05T04:03:34.910Z,956.00
2018-06-05T04:04:34.858Z,980.00
2018-06-05T04:05:34.806Z,1004.00
2018-06-05T04:06:34.752Z,1028.00
2018-06-05T04:07:34.697Z,1052.00
2018-06-05T04:08:34.644Z,1068.00
2018-06-05T04:09:34.592Z,1092.00
2018-06-05T04:10:34.539Z,1112.00
2018-06-05T04:11:34.489Z,1140.00
2018-06-05T04:12:34.439Z,1172.00
2018-06-05T04:13:34.411Z,1204.00
2018-06-05T04:14:34.324Z,1228.00
2018-06-05T04:15:34.273Z,1244.00
2018-06-05T04:16:34.339Z,1272.00
2018-06-05T04:17:34.166Z,1300.00
2018-06-05T04:18:34.112Z,1328.00
2018-06-05T04:19:34.062Z,1352.00
2018-06-05T04:20:34.013Z,1368.00
2018-06-05T04:21:33.957Z,1380.00
2018-06-05T04:22:33.900Z,1384.00
2018-06-05T04:23:33.847Z,1396.00
2018-06-05T04:24:33.795Z,1412.00
2018-06-05T04:25:33.741Z,1432.00
2018-06-05T04:26:33.687Z,1456.00
2018-06-05T04:27:33.703Z,1488.00
2018-06-05T04:28:33.583Z,1528.00
2018-06-05T04:29:33.530Z,1568.00
2018-06-05T04:30:33.477Z,1596.00
2018-06-05T04:31:33.428Z,1620.00
2018-06-05T04:32:33.371Z,1656.00
2018-06-05T04:33:33.321Z,1712.00
2018-06-05T04:34:33.333Z,1756.00
2018-06-05T04:35:33.213Z,1776.00
2018-06-05T04:36:33.160Z,1796.00
2018-06-05T04:37:33.107Z,1828.00
2018-06-05T04:38:33.053Z,1836.00
2018-06-05T04:39:33.005Z,1816.00
2018-06-05T04:40:32.952Z,1808.00
2018-06-05T04:41:32.896Z,1808.00
2018-06-05T04:42:32.846Z,1808.00
2018-06-05T04:43:32.791Z,1820.00
2018-06-05T04:44:32.739Z,1884.00
2018-06-05T04:45:32.689Z,1980.00
2018-06-05T04:46:32.635Z,2072.00
2018-06-05T04:47:32.585Z,2108.00
2018-06-05T04:48:32.532Z,2140.00
2018-06-05T04:49:32.484Z,2180.00
2018-06-05T04:50:32.424Z,2240.00
2018-06-05T04:51:32.375Z,2292.00
2018-06-05T04:52:32.319Z,2316.00
2018-06-05T04:53:32.267Z,2344.00
2018-06-05T04:54:32.243Z,2332.00
2018-06-05T04:55:32.162Z,2304.00
2018-06-05T04:56:32.110Z,2288.00
2018-06-05T04:57:32.059Z,2276.00
2018-06-05T04:58:32.006Z,2308.00
2018-06-05T04:59:31.954Z,2364.00
2018-06-05T05:00:31.901Z,2388.00
2018-06-05T05:01:31.850Z,2392.00
2018-06-05T05:02:31.796Z,2428.00
2018-06-05T05:03:31.747Z,2424.00
2018-06-05T05:04:31.693Z,2452.00
2018-06-05T05:05:31.642Z,2468.00
2018-06-05T05:06:31.588Z,2452.00
2018-06-05T05:07:31.538Z,2416.00
2018-06-05T05:08:31.486Z,2404.00
2018-06-05T05:09:31.432Z,2400.00
2018-06-05T05:10:31.380Z,2400.00
2018-06-05T05:11:31.328Z,2408.00
2018-06-05T05:12:31.277Z,2416.00
2018-06-05T05:13:31.225Z,2424.00
2018-06-05T05:14:31.174Z,2432.00
2018-06-05T05:15:31.124Z,2432.00
2018-06-05T05:16:31.069Z,2424.00
2018-06-05T05:17:31.016Z,2432.00
2018-06-05T05:18:30.964Z,2444.00
2018-06-05T05:19:30.913Z,2460.00
2018-06-05T05:20:30.861Z,2468.00
2018-06-05T05:21:30.808Z,2468.00
2018-06-05T05:22:30.756Z,2464.00
2018-06-05T05:23:30.707Z,2432.00
2018-06-05T05:24:30.654Z,2448.00
2018-06-05T05:25:30.603Z,2520.00
2018-06-05T05:26:30.549Z,2552.00
2018-06-05T05:27:30.497Z,2584.00
2018-06-05T05:28:30.447Z,2616.00
2018-06-05T05:29:30.394Z,2644.00
2018-06-05T05:30:30.342Z,2668.00
2018-06-05T05:31:30.295Z,2700.00
2018-06-05T05:32:30.355Z,2728.00
2018-06-05T05:33:30.193Z,2752.00
2018-06-05T05:34:30.137Z,2776.00
2018-06-05T05:35:30.086Z,2804.00
2018-06-05T05:36:30.037Z,2840.00
2018-06-05T05:37:29.984Z,2872.00
2018-06-05T05:38:29.931Z,2916.00
2018-06-05T05:39:29.880Z,2964.00
2018-06-05T05:40:29.829Z,3024.00
2018-06-05T05:41:29.777Z,3080.00
2018-06-05T05:42:29.757Z,3128.00
2018-06-05T05:43:29.676Z,3192.00
2018-06-05T05:44:29.637Z,3260.00
2018-06-05T05:45:29.572Z,3360.00
2018-06-05T05:46:29.521Z,3504.00
2018-06-05T05:47:29.474Z,3704.00
2018-06-05T05:48:29.419Z,3968.00
2018-06-05T05:49:29.368Z,4232.00
2018-06-05T05:50:29.318Z,4352.00
2018-06-05T05:51:29.265Z,4324.00
2018-06-05T05:52:29.213Z,4204.00
2018-06-05T05:53:29.165Z,4152.00
2018-06-05T05:54:29.112Z,4152.00
2018-06-05T05:55:29.061Z,4100.00
2018-06-05T05:56:29.013Z,4012.00
2018-06-05T05:57:28.959Z,3884.00
2018-06-05T05:58:28.909Z,3804.00
2018-06-05T05:59:28.858Z,3736.00
2018-06-05T06:00:28.808Z,3672.00
2018-06-05T06:01:28.756Z,3580.00
2018-06-05T06:02:28.704Z,3508.00
2018-06-05T06:03:28.654Z,3512.00
2018-06-05T06:04:28.603Z,3520.00
2018-06-05T06:05:28.556Z,3520.00
2018-06-05T06:06:28.501Z,3500.00
2018-06-05T06:07:28.452Z,3504.00
2018-06-05T06:08:28.403Z,3524.00
2018-06-05T06:09:28.350Z,3612.00
2018-06-05T06:10:28.299Z,3752.00
2018-06-05T06:11:28.249Z,3892.00
2018-06-05T06:12:28.199Z,3964.00
2018-06-05T06:13:28.148Z,3940.00
2018-06-05T06:14:28.096Z,3916.00
2018-06-05T06:15:28.046Z,3876.00
2018-06-05T06:16:27.996Z,3940.00
2018-06-05T06:17:27.945Z,3924.00
2018-06-05T06:18:27.894Z,3760.00
2018-06-05T06:19:27.844Z,3564.00
2018-06-05T06:20:27.796Z,3464.00
2018-06-05T06:21:27.741Z,3496.00
2018-06-05T06:22:27.695Z,3608.00
2018-06-05T06:23:27.640Z,3576.00
2018-06-05T06:24:27.592Z,3476.00
2018-06-05T06:25:27.540Z,3344.00
2018-06-05T06:26:27.490Z,3284.00
2018-06-05T06:27:27.438Z,3232.00
2018-06-05T06:28:27.388Z,3152.00
2018-06-05T06:29:27.338Z,3076.00
2018-06-05T06:30:27.287Z,3024.00
2018-06-05T06:31:27.240Z,2980.00
2018-06-05T06:32:27.187Z,2952.00
2018-06-05T06:33:27.137Z,2936.00
2018-06-05T06:34:27.087Z,2916.00
2018-06-05T06:35:27.037Z,2896.00
2018-06-05T06:36:26.988Z,2876.00
2018-06-05T06:37:26.938Z,2860.00
2018-06-05T06:38:26.887Z,2856.00
2018-06-05T06:39:26.837Z,2852.00
2018-06-05T06:40:26.787Z,2848.00
2018-06-05T06:41:26.736Z,2848.00
2018-06-05T06:42:26.685Z,2840.00
2018-06-05T06:43:26.637Z,2840.00
2018-06-05T06:44:26.586Z,2828.00
2018-06-05T06:45:26.536Z,2824.00
2018-06-05T06:46:26.487Z,2820.00
2018-06-05T06:47:26.438Z,2808.00
2018-06-05T06:48:26.386Z,2800.00
2018-06-05T06:49:26.336Z,2796.00
2018-06-05T06:50:26.394Z,2788.00
2018-06-05T06:51:26.239Z,2788.00
2018-06-05T06:52:26.186Z,2788.00
2018-06-05T06:53:26.138Z,2780.00
2018-06-05T06:54:26.104Z,2768.00
2018-06-05T06:55:26.037Z,2764.00
2018-06-05T06:56:25.989Z,2756.00
2018-06-05T06:57:25.939Z,2748.00
2018-06-05T06:58:25.887Z,2744.00
2018-06-05T06:59:25.837Z,2744.00
2018-06-05T07:00:25.791Z,2744.00
2018-06-05T07:01:25.741Z,2744.00
2018-06-05T07:02:25.688Z,2756.00
2018-06-05T07:03:25.643Z,2768.00
2018-06-05T07:04:25.590Z,2784.00
2018-06-05T07:05:25.541Z,2792.00
2018-06-05T07:06:25.490Z,2804.00
2018-06-05T07:07:25.440Z,2812.00
2018-06-05T07:08:25.394Z,2816.00
2018-06-05T07:09:25.343Z,2824.00
2018-06-05T07:10:25.291Z,2824.00
2018-06-05T07:11:25.242Z,2828.00
2018-06-05T07:12:25.196Z,2836.00
2018-06-05T07:13:25.146Z,2848.00
2018-06-05T07:14:25.097Z,2864.00
2018-06-05T07:15:25.046Z,2884.00
2018-06-05T07:16:24.996Z,2896.00
2018-06-05T07:17:24.945Z,2912.00
2018-06-05T07:18:24.897Z,2912.00
2018-06-05T07:19:24.847Z,2924.00
2018-06-05T07:20:24.798Z,2924.00
2018-06-05T07:21:24.749Z,2916.00
2018-06-05T07:22:24.700Z,2908.00
2018-06-05T07:23:24.650Z,2900.00
2018-06-05T07:24:24.601Z,2884.00
2018-06-05T07:25:24.553Z,2876.00
2018-06-05T07:26:24.502Z,2876.00
2018-06-05T07:27:24.453Z,2880.00
2018-06-05T07:28:24.404Z,2896.00
2018-06-05T07:29:24.360Z,2908.00
2018-06-05T07:30:24.317Z,2908.00
2018-06-05T07:31:24.258Z,2904.00
2018-06-05T07:32:24.212Z,2892.00
2018-06-05T07:33:24.161Z,2884.00
2018-06-05T07:34:24.112Z,2880.00
2018-06-05T07:35:24.061Z,2888.00
2018-06-05T07:36:24.012Z,2904.00
2018-06-05T07:37:23.965Z,2920.00
2018-06-05T07:38:23.915Z,2940.00
2018-06-05T07:39:23.866Z,2936.00
2018-06-05T07:40:23.818Z,2928.00
2018-06-05T07:41:23.770Z,2908.00
2018-06-05T07:42:23.720Z,2888.00
2018-06-05T07:43:23.671Z,2884.00
2018-06-05T07:44:23.672Z,2888.00
2018-06-05T07:45:23.574Z,2892.00
2018-06-05T07:46:23.525Z,2884.00
2018-06-05T07:47:23.477Z,2872.00
2018-06-05T07:48:23.428Z,2864.00
2018-06-05T07:49:23.384Z,2868.00
2018-06-05T07:50:23.333Z,2868.00
2018-06-05T07:51:23.285Z,2848.00
2018-06-05T07:52:23.236Z,2824.00
2018-06-05T07:53:23.187Z,2792.00
2018-06-05T07:54:23.137Z,2772.00
2018-06-05T07:55:23.126Z,2748.00
2018-06-05T07:56:23.041Z,2724.00
2018-06-05T07:57:22.994Z,2704.00
2018-06-05T07:58:22.946Z,2688.00
2018-06-05T07:59:22.897Z,2668.00
2018-06-05T08:00:22.850Z,2656.00
2018-06-05T08:01:22.805Z,2636.00
2018-06-05T08:02:22.755Z,2624.00
2018-06-05T08:03:22.704Z,2608.00
2018-06-05T08:04:22.679Z,2592.00
2018-06-05T08:05:22.608Z,2588.00
2018-06-05T08:06:22.561Z,2580.00
2018-06-05T08:07:22.513Z,2572.00
2018-06-05T08:08:22.465Z,2572.00
2018-06-05T08:09:22.417Z,2568.00
2018-06-05T08:10:22.368Z,2576.00
2018-06-05T08:11:22.323Z,2580.00
2018-06-05T08:12:22.274Z,2576.00
2018-06-05T08:13:22.225Z,2576.00
2018-06-05T08:14:22.178Z,2576.00
2018-06-05T08:15:22.131Z,2576.00
2018-06-05T08:16:22.082Z,2576.00
2018-06-05T08:17:22.037Z,2580.00
2018-06-05T08:18:22.048Z,2576.00
2018-06-05T08:19:21.941Z,2568.00
2018-06-05T08:20:21.894Z,2556.00
2018-06-05T08:21:21.845Z,2548.00
2018-06-05T08:22:21.799Z,2540.00
2018-06-05T08:23:21.751Z,2532.00
2018-06-05T08:24:21.705Z,2524.00
2018-06-05T08:25:21.660Z,2524.00
2018-06-05T08:26:21.610Z,2516.00
2018-06-05T08:27:21.561Z,2512.00
2018-06-05T08:28:21.516Z,2516.00
2018-06-05T08:29:21.476Z,2516.00
2018-06-05T08:30:21.420Z,2516.00
2018-06-05T08:31:21.375Z,2520.00
2018-06-05T08:32:21.328Z,2516.00
2018-06-05T08:33:21.281Z,2516.00
2018-06-05T08:34:21.234Z,2512.00
2018-06-05T08:35:21.198Z,2508.00
2018-06-05T08:36:21.139Z,2500.00
2018-06-05T08:37:21.096Z,2492.00
2018-06-05T08:38:21.048Z,2488.00
2018-06-05T08:39:20.998Z,2476.00
2018-06-05T08:40:20.952Z,2472.00
2018-06-05T08:41:20.905Z,2472.00
2018-06-05T08:42:20.859Z,2472.00
2018-06-05T08:43:20.815Z,2476.00
2018-06-05T08:44:20.767Z,2468.00
2018-06-05T08:45:20.720Z,2464.00
2018-06-05T08:46:20.672Z,2460.00
2018-06-05T08:47:20.625Z,2448.00
2018-06-05T08:48:20.578Z,2440.00
2018-06-05T08:49:20.535Z,2436.00
2018-06-05T08:50:20.485Z,2432.00
2018-06-05T08:51:20.440Z,2432.00
2018-06-05T08:52:20.398Z,2428.00
2018-06-05T08:53:20.347Z,2428.00
2018-06-05T08:54:21.413Z,2432.00
2018-06-05T08:55:20.255Z,2432.00
2018-06-05T08:56:20.210Z,2428.00
2018-06-05T08:57:20.162Z,2424.00
2018-06-05T08:58:20.118Z,2428.00
2018-06-05T08:59:20.068Z,2432.00
2018-06-05T09:00:20.022Z,2428.00
2018-06-05T09:01:19.975Z,2424.00
2018-06-05T09:02:19.927Z,2416.00
2018-06-05T09:03:19.884Z,2408.00
2018-06-05T09:04:19.840Z,2400.00
2018-06-05T09:05:19.817Z,2404.00
2018-06-05T09:06:19.743Z,2416.00
2018-06-05T09:07:19.698Z,2404.00
2018-06-05T09:08:19.653Z,2408.00
2018-06-05T09:09:19.606Z,2408.00
2018-06-05T09:10:19.560Z,2408.00
2018-06-05T09:11:19.514Z,2416.00
2018-06-05T09:12:19.467Z,2420.00
2018-06-05T09:13:19.423Z,2428.00
2018-06-05T09:14:19.378Z,2436.00
2018-06-05T09:15:19.332Z,2448.00
2018-06-05T09:16:19.285Z,2460.00
2018-06-05T09:17:19.239Z,2468.00
2018-06-05T09:18:19.193Z,2472.00
2018-06-05T09:19:19.147Z,2460.00
2018-06-05T09:20:19.103Z,2452.00
2018-06-05T09:21:19.057Z,2452.00
2018-06-05T09:22:19.012Z,2452.00
2018-06-05T09:23:18.970Z,2456.00
2018-06-05T09:24:18.920Z,2460.00
2018-06-05T09:25:18.879Z,2464.00
2018-06-05T09:26:18.830Z,2472.00
2018-06-05T09:27:18.789Z,2484.00
2018-06-05T09:28:18.737Z,2488.00
2018-06-05T09:29:18.693Z,2488.00
2018-06-05T09:30:18.648Z,2484.00
2018-06-05T09:31:18.601Z,2488.00
2018-06-05T09:32:18.557Z,2488.00
2018-06-05T09:33:18.512Z,2484.00
2018-06-05T09:34:18.516Z,2492.00
2018-06-05T09:35:18.420Z,2496.00
2018-06-05T09:36:18.377Z,2496.00
2018-06-05T09:37:18.332Z,2496.00
2018-06-05T09:38:18.284Z,2496.00
2018-06-05T09:39:18.241Z,2500.00
2018-06-05T09:40:18.195Z,2496.00
2018-06-05T09:41:18.151Z,2516.00
2018-06-05T09:42:18.108Z,2540.00
2018-06-05T09:43:18.061Z,2528.00
2018-06-05T09:44:18.016Z,2524.00
2018-06-05T09:45:17.972Z,2540.00
2018-06-05T09:46:17.925Z,2536.00
2018-06-05T09:47:17.883Z,2544.00
2018-06-05T09:48:17.842Z,2544.00
2018-06-05T09:49:17.792Z,2588.00
2018-06-05T09:50:17.749Z,2600.00
2018-06-05T09:51:17.701Z,2652.00
2018-06-05T09:52:17.657Z,2192.00
2018-06-05T09:53:17.613Z,2160.00
2018-06-05T09:54:17.566Z,2568.00
2018-06-05T09:55:17.523Z,2044.00
2018-06-05T09:56:17.481Z,1968.00
2018-06-05T09:57:17.432Z,2012.00
2018-06-05T09:58:17.643Z,2112.00
2018-06-05T09:59:17.413Z,1992.00
2018-06-05T10:00:17.314Z,1952.00
2018-06-05T10:01:17.253Z,2044.00
2018-06-05T10:02:17.221Z,2464.00
2018-06-05T10:03:17.163Z,2296.00
2018-06-05T10:04:17.118Z,2104.00
2018-06-05T10:05:17.071Z,2384.00
2018-06-05T10:06:17.027Z,2704.00
2018-06-05T10:07:16.981Z,2916.00
2018-06-05T10:08:16.939Z,3028.00
2018-06-05T10:09:16.892Z,3160.00
2018-06-05T10:10:16.846Z,3312.00
2018-06-05T10:11:16.800Z,3588.00
2018-06-05T10:12:16.758Z,2960.00
2018-06-05T10:13:16.710Z,2848.00
2018-06-05T10:14:16.665Z,2780.00
2018-06-05T10:15:16.620Z,2696.00
2018-06-05T10:16:16.575Z,2696.00
2018-06-05T10:17:16.531Z,2604.00
2018-06-05T10:18:16.484Z,2716.00
2018-06-05T10:19:16.443Z,2732.00
2018-06-05T10:20:16.429Z,2648.00
2018-06-05T10:21:16.349Z,2648.00
2018-06-05T10:22:16.305Z,2768.00
2018-06-05T10:23:16.269Z,3032.00
2018-06-05T10:24:16.215Z,3220.00
2018-06-05T10:25:16.171Z,3256.00
2018-06-05T10:26:16.126Z,3260.00
2018-06-05T10:27:16.080Z,3308.00
2018-06-05T10:28:16.038Z,3440.00
2018-06-05T10:29:15.995Z,3584.00
2018-06-05T10:30:15.946Z,3444.00
2018-06-05T10:31:15.902Z,3616.00
2018-06-05T10:32:15.854Z,3876.00
2018-06-05T10:33:15.812Z,3992.00
2018-06-05T10:34:15.766Z,4076.00
2018-06-05T10:35:15.719Z,3904.00
2018-06-05T10:36:15.676Z,3860.00
2018-06-05T10:37:15.630Z,3276.00
2018-06-05T10:38:15.585Z,3216.00
2018-06-05T10:39:15.540Z,3324.00
2018-06-05T10:40:15.543Z,3916.00
2018-06-05T10:41:15.453Z,3968.00
2018-06-05T10:42:15.408Z,3940.00
2018-06-05T10:43:15.363Z,3820.00
2018-06-05T10:44:15.318Z,3292.00
2018-06-05T10:45:15.278Z,3620.00
2018-06-05T10:46:15.229Z,3788.00
2018-06-05T10:47:15.185Z,3880.00
2018-06-05T10:48:15.141Z,4012.00
2018-06-05T10:49:15.097Z,4176.00
2018-06-05T10:50:15.053Z,4360.00
2018-06-05T10:51:15.009Z,4456.00
2018-06-05T10:52:14.964Z,4468.00
2018-06-05T10:53:14.919Z,4528.00
2018-06-05T10:54:14.876Z,4504.00
2018-06-05T10:55:14.830Z,4424.00
2018-06-05T10:56:14.788Z,4196.00
2018-06-05T10:57:14.747Z,3980.00
2018-06-05T10:58:14.699Z,3884.00
2018-06-05T10:59:14.654Z,3888.00
2018-06-05T11:00:14.611Z,3900.00
2018-06-05T11:01:14.569Z,3948.00
2018-06-05T11:02:14.524Z,4008.00
2018-06-05T11:03:14.480Z,3932.00
2018-06-05T11:04:14.437Z,3876.00
2018-06-05T11:05:14.392Z,3768.00
2018-06-05T11:06:14.350Z,3608.00
2018-06-05T11:07:14.307Z,3500.00
2018-06-05T11:08:14.261Z,3504.00
2018-06-05T11:09:14.218Z,3444.00
2018-06-05T11:10:14.173Z,3420.00
2018-06-05T11:11:14.130Z,3480.00
2018-06-05T11:12:14.089Z,3528.00
2018-06-05T11:13:14.042Z,3504.00
2018-06-05T11:14:13.999Z,3448.00
2018-06-05T11:15:13.959Z,3212.00
2018-06-05T11:16:13.911Z,3064.00
2018-06-05T11:17:13.868Z,3232.00
2018-06-05T11:18:13.829Z,3156.00
2018-06-05T11:19:13.779Z,3196.00
2018-06-05T11:20:13.736Z,3556.00
2018-06-05T11:21:13.693Z,3564.00
2018-06-05T11:22:13.647Z,3640.00
2018-06-05T11:23:13.601Z,3736.00
2018-06-05T11:24:13.558Z,3808.00
2018-06-05T11:25:13.516Z,3948.00
2018-06-05T11:26:13.470Z,3960.00
2018-06-05T11:27:13.427Z,3944.00
2018-06-05T11:28:13.469Z,4020.00
2018-06-05T11:29:13.338Z,4136.00
2018-06-05T11:30:13.294Z,4192.00
2018-06-05T11:31:13.251Z,4208.00
2018-06-05T11:32:13.205Z,3992.00
2018-06-05T11:33:13.163Z,3788.00
2018-06-05T11:34:13.118Z,3752.00
2018-06-05T11:35:13.076Z,3712.00
2018-06-05T11:36:13.030Z,3748.00
2018-06-05T11:37:12.987Z,3836.00
2018-06-05T11:38:12.943Z,3956.00
2018-06-05T11:39:12.900Z,3996.00
2018-06-05T11:40:12.857Z,3844.00
2018-06-05T11:41:12.815Z,3684.00
2018-06-05T11:42:12.772Z,3692.00
2018-06-05T11:43:12.730Z,3732.00
2018-06-05T11:44:12.681Z,3816.00
2018-06-05T11:45:12.636Z,3928.00
2018-06-05T11:46:12.595Z,3988.00
2018-06-05T11:47:12.548Z,3884.00
2018-06-05T11:48:12.508Z,3804.00
2018-06-05T11:49:12.462Z,3904.00
2018-06-05T11:50:12.419Z,4068.00
2018-06-05T11:51:12.374Z,4104.00
2018-06-05T11:52:12.330Z,4116.00
2018-06-05T11:53:12.289Z,4104.00
2018-06-05T11:54:12.306Z,4128.00
2018-06-05T11:55:12.199Z,4212.00
2018-06-05T11:56:12.156Z,4188.00
2018-06-05T11:57:12.113Z,4232.00
2018-06-05T11:58:12.067Z,4336.00
2018-06-05T11:59:12.025Z,4356.00
2018-06-05T12:00:11.981Z,4316.00
2018-06-05T12:01:11.939Z,4256.00
2018-06-05T12:02:11.896Z,4124.00
2018-06-05T12:03:11.851Z,4144.00
2018-06-05T12:04:11.812Z,4128.00
2018-06-05T12:05:11.769Z,4024.00
2018-06-05T12:06:11.722Z,3852.00
2018-06-05T12:07:11.679Z,3644.00
2018-06-05T12:08:11.636Z,3424.00
2018-06-05T12:09:11.591Z,3296.00
2018-06-05T12:10:11.551Z,3212.00
2018-06-05T12:11:11.508Z,3104.00
2018-06-05T12:12:11.463Z,2960.00
2018-06-05T12:13:11.421Z,2880.00
2018-06-05T12:14:11.376Z,2868.00
2018-06-05T12:15:11.332Z,2840.00
2018-06-05T12:16:11.292Z,2808.00
2018-06-05T12:17:11.247Z,2792.00
2018-06-05T12:18:11.204Z,2784.00
2018-06-05T12:19:11.160Z,2828.00
2018-06-05T12:20:11.118Z,2836.00
2018-06-05T12:21:11.073Z,2848.00
2018-06-05T12:22:11.030Z,2928.00
2018-06-05T12:23:10.986Z,2932.00
2018-06-05T12:24:10.945Z,3108.00